Time;durP1;ratioP1;P1;durP2;ratioP2;P2;SDS_P1;SDS_P2;PMS_P1;PMS_P2;Temp;Humidity;BMP_temperature;BMP_pressure;BME280_temperature;BME280_humidity;BME280_pressure;Samples;Min_cycle;Max_cycle;Signal;HPM_P1;HPM_P2
2022/11/22 00:00:39;;;;;;;31.50;21.02;;;;;;;;;;6268885;28;20055;-75
2022/11/22 00:03:42;;;;;;;58.00;33.28;;;;;;;;;;6269155;28;20140;-70
2022/11/22 00:06:44;;;;;;;38.42;24.75;;;;;;;;;;6265482;28;20333;-75
2022/11/22 00:09:45;;;;;;;65.70;35.28;;;;;;;;;;6267366;28;20072;-73
2022/11/22 00:12:47;;;;;;;50.67;27.20;;;;;;;;;;6270714;28;20104;-72
2022/11/22 00:15:58;;;;;;;71.53;38.70;;;;;;;;;;6268178;28;20053;-70
2022/11/22 00:19:01;;;;;;;45.67;27.13;;;;;;;;;;6267239;28;20383;-70
2022/11/22 00:22:02;;;;;;;27.08;18.00;;;;;;;;;;6270815;28;20048;-66
2022/11/22 00:25:05;;;;;;;92.47;47.53;;;;;;;;;;6272713;28;20060;-70
2022/11/22 00:28:07;;;;;;;37.90;22.27;;;;;;;;;;6268564;28;20130;-70
2022/11/22 00:31:08;;;;;;;28.70;17.23;;;;;;;;;;6271074;28;20048;-69
2022/11/22 00:34:11;;;;;;;19.85;13.93;;;;;;;;;;6266682;28;20057;-69
2022/11/22 00:37:13;;;;;;;18.17;13.38;;;;;;;;;;6267504;28;20339;-69
2022/11/22 00:40:15;;;;;;;18.10;13.63;;;;;;;;;;6265246;28;20279;-70
2022/11/22 00:43:17;;;;;;;16.95;13.10;;;;;;;;;;6268689;28;20052;-69
2022/11/22 00:46:19;;;;;;;17.50;11.93;;;;;;;;;;6268917;28;20060;-69
2022/11/22 00:49:22;;;;;;;19.17;12.32;;;;;;;;;;6272404;28;20049;-69
2022/11/22 00:52:24;;;;;;;17.83;11.27;;;;;;;;;;6273161;28;20052;-69
2022/11/22 00:55:25;;;;;;;18.08;11.80;;;;;;;;;;6271708;28;20056;-69
2022/11/22 00:58:27;;;;;;;14.93;10.85;;;;;;;;;;6268363;28;20060;-70
2022/11/22 01:01:29;;;;;;;15.48;11.18;;;;;;;;;;6268872;28;20045;-68
2022/11/22 01:04:32;;;;;;;17.85;11.18;;;;;;;;;;6265370;28;20144;-72
2022/11/22 01:07:33;;;;;;;20.02;11.60;;;;;;;;;;6266511;28;20053;-69
2022/11/22 01:10:36;;;;;;;16.35;11.65;;;;;;;;;;6267569;28;20068;-69
2022/11/22 01:13:37;;;;;;;18.10;13.05;;;;;;;;;;6267297;28;20064;-69
2022/11/22 01:16:39;;;;;;;21.52;14.40;;;;;;;;;;6265120;28;20081;-69
2022/11/22 01:19:42;;;;;;;21.08;14.95;;;;;;;;;;6264425;28;20301;-69
2022/11/22 01:22:44;;;;;;;21.77;15.20;;;;;;;;;;6271192;28;20225;-69
2022/11/22 01:25:46;;;;;;;22.45;16.77;;;;;;;;;;6265274;28;20063;-68
2022/11/22 01:28:48;;;;;;;23.92;17.25;;;;;;;;;;6266222;28;20177;-68
2022/11/22 01:31:49;;;;;;;27.15;19.05;;;;;;;;;;6266074;28;20118;-69
2022/11/22 01:34:52;;;;;;;27.70;18.23;;;;;;;;;;6266718;28;20049;-68
2022/11/22 01:37:54;;;;;;;27.60;18.90;;;;;;;;;;6266415;28;20433;-70
2022/11/22 01:40:56;;;;;;;26.25;17.60;;;;;;;;;;6265091;28;20048;-71
2022/11/22 01:43:58;;;;;;;25.40;17.67;;;;;;;;;;6265485;28;20072;-71
2022/11/22 01:47:00;;;;;;;23.85;16.52;;;;;;;;;;6267873;28;20051;-69
2022/11/22 01:50:07;;;;;;;25.30;17.52;;;;;;;;;;6263509;28;20328;-69
2022/11/22 01:53:11;;;;;;;26.42;17.90;;;;;;;;;;6272475;28;20053;-69
2022/11/22 01:56:15;;;;;;;25.00;18.05;;;;;;;;;;6266959;28;20359;-67
2022/11/22 01:59:19;;;;;;;24.17;17.48;;;;;;;;;;6265642;28;20064;-71
2022/11/22 02:02:21;;;;;;;24.70;16.70;;;;;;;;;;6264468;28;20056;-69
2022/11/22 02:05:27;;;;;;;22.60;16.27;;;;;;;;;;6270862;28;20049;-68
2022/11/22 02:08:32;;;;;;;24.80;16.83;;;;;;;;;;6267648;28;20408;-67
2022/11/22 02:11:36;;;;;;;23.15;17.08;;;;;;;;;;6269776;28;20135;-69
2022/11/22 02:14:38;;;;;;;;;;;;;;;;;;6271220;28;20099;-69
2022/11/22 02:17:39;;;;;;;20.60;14.73;;;;;;;;;;6268038;28;19924;-70
2022/11/22 02:20:43;;;;;;;20.65;15.55;;;;;;;;;;6270437;28;20053;-69
2022/11/22 02:23:54;;;;;;;24.85;15.45;;;;;;;;;;6267502;28;20052;-69
2022/11/22 02:26:58;;;;;;;20.92;14.85;;;;;;;;;;6270548;28;20048;-68
2022/11/22 02:30:00;;;;;;;21.33;14.57;;;;;;;;;;6265142;28;20120;-68
2022/11/22 02:33:02;;;;;;;21.38;14.23;;;;;;;;;;6264960;28;20072;-68
2022/11/22 02:36:04;;;;;;;20.80;14.25;;;;;;;;;;6271280;28;20053;-71
2022/11/22 02:39:06;;;;;;;19.08;14.07;;;;;;;;;;6266440;28;20226;-71
2022/11/22 02:42:09;;;;;;;18.58;13.38;;;;;;;;;;6269346;28;20102;-69
2022/11/22 02:45:11;;;;;;;16.85;12.82;;;;;;;;;;6265284;28;20052;-71
2022/11/22 02:48:15;;;;;;;15.43;12.23;;;;;;;;;;6266428;28;22425;-69
2022/11/22 02:51:18;;;;;;;17.60;11.07;;;;;;;;;;6267864;28;20087;-69
2022/11/22 02:54:20;;;;;;;11.93;8.68;;;;;;;;;;6267112;28;20057;-70
2022/11/22 02:57:23;;;;;;;13.25;10.18;;;;;;;;;;6268395;28;20059;-66
2022/11/22 03:00:25;;;;;;;14.82;10.88;;;;;;;;;;6268162;28;20052;-69
2022/11/22 03:03:27;;;;;;;14.73;10.75;;;;;;;;;;6267491;28;20067;-69
2022/11/22 03:06:28;;;;;;;12.57;9.38;;;;;;;;;;6264444;28;20329;-68
2022/11/22 03:09:30;;;;;;;13.60;9.55;;;;;;;;;;6264324;28;20067;-69
2022/11/22 03:12:34;;;;;;;12.25;9.18;;;;;;;;;;6265796;28;20055;-69
2022/11/22 03:15:35;;;;;;;14.93;9.07;;;;;;;;;;6269556;28;20068;-69
2022/11/22 03:18:37;;;;;;;11.05;8.45;;;;;;;;;;6266671;28;20056;-70
2022/11/22 03:21:40;;;;;;;13.25;9.20;;;;;;;;;;6264920;28;20045;-69
2022/11/22 03:24:42;;;;;;;12.07;8.40;;;;;;;;;;6268245;28;20071;-69
2022/11/22 03:27:45;;;;;;;12.48;8.75;;;;;;;;;;6270386;28;20057;-69
2022/11/22 03:30:46;;;;;;;13.07;8.93;;;;;;;;;;6267284;28;20048;-71
2022/11/22 03:33:48;;;;;;;15.63;8.18;;;;;;;;;;6267978;28;20569;-68
2022/11/22 03:36:50;;;;;;;11.40;8.13;;;;;;;;;;6265468;28;20050;-69
2022/11/22 03:39:52;;;;;;;10.38;7.80;;;;;;;;;;6264955;28;20329;-70
2022/11/22 03:42:55;;;;;;;10.80;6.82;;;;;;;;;;6269218;28;20329;-70
2022/11/22 03:45:56;;;;;;;8.85;7.22;;;;;;;;;;6274734;28;20052;-70
2022/11/22 03:48:58;;;;;;;9.93;6.82;;;;;;;;;;6272684;28;20056;-69
2022/11/22 03:52:00;;;;;;;7.80;5.72;;;;;;;;;;6272145;28;20062;-68
2022/11/22 03:55:02;;;;;;;7.90;5.82;;;;;;;;;;6275051;28;20147;-69
2022/11/22 03:58:05;;;;;;;7.72;5.18;;;;;;;;;;6272865;28;20061;-69
2022/11/22 04:01:07;;;;;;;7.70;5.47;;;;;;;;;;6271771;28;20245;-69
2022/11/22 04:04:08;;;;;;;6.43;4.85;;;;;;;;;;6267038;28;20053;-69
2022/11/22 04:07:10;;;;;;;7.32;4.43;;;;;;;;;;6275769;28;20068;-69
2022/11/22 04:10:12;;;;;;;7.22;5.05;;;;;;;;;;6271450;28;20103;-69
2022/11/22 04:13:15;;;;;;;7.18;4.78;;;;;;;;;;6275090;28;20095;-68
2022/11/22 04:16:16;;;;;;;7.35;4.30;;;;;;;;;;6269823;28;20244;-70
2022/11/22 04:19:18;;;;;;;5.78;4.47;;;;;;;;;;6270462;28;20053;-69
2022/11/22 04:22:19;;;;;;;6.10;3.60;;;;;;;;;;6274482;28;20053;-69
2022/11/22 04:25:20;;;;;;;5.63;3.75;;;;;;;;;;6271520;28;20057;-70
2022/11/22 04:28:26;;;;;;;4.90;3.40;;;;;;;;;;6262588;28;20066;-67
2022/11/22 04:34:47;;;;;;;4.53;3.05;;;;;;;;;;6265708;28;20116;-70
2022/11/22 04:37:50;;;;;;;4.22;3.08;;;;;;;;;;6270509;28;20356;-69
2022/11/22 04:40:52;;;;;;;4.45;3.05;;;;;;;;;;6263589;28;20064;-69
2022/11/22 04:47:57;;;;;;;4.80;3.05;;;;;;;;;;6270140;28;20052;-70
2022/11/22 04:54:01;;;;;;;3.65;2.35;;;;;;;;;;6266209;28;20053;-69
2022/11/22 04:57:02;;;;;;;4.05;2.47;;;;;;;;;;6272034;28;20064;-69
2022/11/22 05:00:07;;;;;;;4.20;2.30;;;;;;;;;;6269440;28;20060;-70
2022/11/22 05:03:08;;;;;;;4.82;2.30;;;;;;;;;;6265324;28;20053;-69
2022/11/22 05:06:13;;;;;;;3.83;2.45;;;;;;;;;;6267834;28;20244;-66
2022/11/22 05:09:15;;;;;;;;;;;;;;;;;;6268279;28;20095;-70
2022/11/22 05:12:17;;;;;;;3.60;2.20;;;;;;;;;;6265741;28;20505;-67
2022/11/22 05:15:20;;;;;;;4.35;2.00;;;;;;;;;;6269539;28;20041;-66
2022/11/22 05:18:23;;;;;;;3.25;1.63;;;;;;;;;;6266007;28;20107;-69
2022/11/22 05:21:25;;;;;;;3.45;1.73;;;;;;;;;;6266487;28;20048;-70
2022/11/22 05:24:27;;;;;;;3.10;1.45;;;;;;;;;;6269045;28;20344;-70
2022/11/22 05:27:28;;;;;;;3.00;1.67;;;;;;;;;;6269260;28;20072;-69
2022/11/22 05:30:31;;;;;;;2.92;1.40;;;;;;;;;;6266476;28;20383;-70
2022/11/22 05:33:33;;;;;;;2.97;1.50;;;;;;;;;;6267218;28;20054;-69
2022/11/22 05:36:35;;;;;;;2.22;1.10;;;;;;;;;;6266981;28;20122;-72
2022/11/22 05:39:36;;;;;;;2.00;1.35;;;;;;;;;;6266838;28;20057;-70
2022/11/22 05:42:38;;;;;;;2.65;1.38;;;;;;;;;;6269066;28;20050;-69
2022/11/22 05:45:41;;;;;;;3.13;1.20;;;;;;;;;;6265393;28;20059;-69
2022/11/22 05:48:44;;;;;;;2.83;1.65;;;;;;;;;;6268852;28;20060;-68
2022/11/22 05:51:46;;;;;;;1.52;1.20;;;;;;;;;;6267165;28;20057;-69
2022/11/22 05:54:48;;;;;;;2.60;1.20;;;;;;;;;;6264957;28;20064;-69
2022/11/22 05:57:49;;;;;;;1.10;1.00;;;;;;;;;;6265262;28;20053;-67
2022/11/22 06:00:52;;;;;;;1.70;1.13;;;;;;;;;;6268116;28;20049;-69
2022/11/22 06:03:54;;;;;;;1.90;1.27;;;;;;;;;;6267879;28;20046;-67
2022/11/22 06:06:56;;;;;;;2.33;1.13;;;;;;;;;;6263118;28;20067;-71
2022/11/22 06:09:58;;;;;;;2.45;1.30;;;;;;;;;;6267750;28;20071;-69
2022/11/22 06:13:00;;;;;;;2.15;1.17;;;;;;;;;;6266185;28;20067;-69
2022/11/22 06:16:03;;;;;;;2.42;1.30;;;;;;;;;;6264755;28;20056;-68
2022/11/22 06:19:05;;;;;;;2.38;1.00;;;;;;;;;;6268484;28;20061;-69
2022/11/22 06:22:08;;;;;;;3.03;1.35;;;;;;;;;;6266726;28;20048;-69
2022/11/22 06:25:10;;;;;;;4.78;1.02;;;;;;;;;;6266071;28;20052;-69
2022/11/22 06:28:12;;;;;;;1.45;1.00;;;;;;;;;;6268165;28;20056;-70
2022/11/22 06:31:17;;;;;;;1.98;1.08;;;;;;;;;;6265532;28;20057;-70
2022/11/22 06:34:18;;;;;;;1.80;1.27;;;;;;;;;;6267918;28;20056;-70
2022/11/22 06:37:20;;;;;;;2.90;1.05;;;;;;;;;;6264949;28;20107;-70
2022/11/22 06:40:22;;;;;;;1.65;1.10;;;;;;;;;;6265435;28;20052;-69
2022/11/22 06:43:23;;;;;;;2.95;1.30;;;;;;;;;;6264750;28;20111;-68
2022/11/22 06:46:27;;;;;;;2.72;1.20;;;;;;;;;;6266311;28;20053;-67
2022/11/22 06:49:28;;;;;;;1.90;1.27;;;;;;;;;;6264476;28;20387;-68
2022/11/22 06:52:30;;;;;;;2.47;1.23;;;;;;;;;;6265517;28;20276;-68
2022/11/22 06:55:32;;;;;;;2.17;1.23;;;;;;;;;;6265492;28;20052;-70
2022/11/22 06:58:34;;;;;;;1.17;1.08;;;;;;;;;;6266817;28;20053;-68
2022/11/22 07:01:37;;;;;;;4.38;1.75;;;;;;;;;;6264593;28;20060;-67
2022/11/22 07:04:39;;;;;;;2.80;1.40;;;;;;;;;;6261359;28;20053;-67
2022/11/22 07:07:40;;;;;;;1.90;1.40;;;;;;;;;;6267031;28;20057;-67
2022/11/22 07:10:42;;;;;;;3.35;1.30;;;;;;;;;;6264919;28;20095;-68
2022/11/22 07:13:44;;;;;;;2.60;1.83;;;;;;;;;;6264098;28;20083;-69
2022/11/22 07:16:47;;;;;;;2.88;1.45;;;;;;;;;;6266025;28;20110;-68
2022/11/22 07:19:49;;;;;;;2.38;1.40;;;;;;;;;;6260835;28;20060;-68
2022/11/22 07:22:51;;;;;;;2.10;1.50;;;;;;;;;;6259164;28;20048;-67
2022/11/22 07:25:52;;;;;;;5.18;1.80;;;;;;;;;;6260797;28;20049;-69
2022/11/22 07:28:54;;;;;;;2.88;1.73;;;;;;;;;;6262122;28;20132;-68
2022/11/22 07:31:57;;;;;;;3.05;1.30;;;;;;;;;;6264340;28;20063;-69
2022/11/22 07:34:59;;;;;;;3.22;1.60;;;;;;;;;;6259949;28;20070;-69
2022/11/22 07:38:01;;;;;;;2.60;1.70;;;;;;;;;;6262906;28;20049;-67
2022/11/22 07:41:03;;;;;;;2.58;1.40;;;;;;;;;;6265744;28;20061;-68
2022/11/22 07:44:05;;;;;;;2.65;1.48;;;;;;;;;;6264199;28;20053;-70
2022/11/22 07:47:08;;;;;;;2.50;1.20;;;;;;;;;;6265234;28;20049;-70
2022/11/22 07:50:10;;;;;;;1.92;1.30;;;;;;;;;;6263454;28;20217;-68
2022/11/22 07:53:11;;;;;;;3.92;1.50;;;;;;;;;;6264006;28;20067;-65
2022/11/22 07:56:14;;;;;;;1.95;1.20;;;;;;;;;;6260782;28;20053;-70
2022/11/22 07:59:15;;;;;;;2.83;1.45;;;;;;;;;;6265885;28;20105;-70
2022/11/22 08:02:18;;;;;;;3.67;1.73;;;;;;;;;;6265110;28;20041;-70
2022/11/22 08:05:21;;;;;;;1.42;1.02;;;;;;;;;;6262408;28;20246;-67
2022/11/22 08:08:22;;;;;;;2.03;1.40;;;;;;;;;;6263862;28;20150;-70
2022/11/22 08:11:24;;;;;;;2.17;1.23;;;;;;;;;;6263287;28;20056;-69
2022/11/22 08:14:25;;;;;;;3.05;1.40;;;;;;;;;;6264262;28;20056;-68
2022/11/22 08:17:29;;;;;;;2.90;1.42;;;;;;;;;;6266181;28;20052;-68
2022/11/22 08:20:30;;;;;;;2.80;1.20;;;;;;;;;;6262776;28;20041;-67
2022/11/22 08:23:32;;;;;;;3.30;1.23;;;;;;;;;;6265237;28;20674;-69
2022/11/22 08:26:34;;;;;;;3.78;1.73;;;;;;;;;;6263827;28;20041;-68
2022/11/22 08:29:36;;;;;;;5.25;2.00;;;;;;;;;;6266215;28;20079;-70
2022/11/22 08:32:39;;;;;;;2.85;1.33;;;;;;;;;;6267199;28;20048;-69
2022/11/22 08:35:42;;;;;;;2.05;1.30;;;;;;;;;;6269152;28;20269;-69
2022/11/22 08:38:43;;;;;;;1.90;1.25;;;;;;;;;;6269118;28;20099;-68
2022/11/22 08:41:45;;;;;;;3.00;1.25;;;;;;;;;;6267997;28;20380;-66
2022/11/22 08:44:46;;;;;;;3.80;1.40;;;;;;;;;;6265871;28;20068;-69
2022/11/22 08:47:51;;;;;;;5.22;1.30;;;;;;;;;;6269791;28;20046;-68
2022/11/22 08:50:53;;;;;;;4.25;1.77;;;;;;;;;;6271858;28;20060;-69
2022/11/22 08:53:55;;;;;;;2.80;1.33;;;;;;;;;;6267796;28;20045;-68
2022/11/22 08:56:57;;;;;;;2.10;1.60;;;;;;;;;;6267122;28;20067;-68
2022/11/22 08:59:58;;;;;;;2.97;1.58;;;;;;;;;;6267978;28;20048;-68
2022/11/22 09:03:01;;;;;;;2.20;1.70;;;;;;;;;;6266068;28;20268;-69
2022/11/22 09:06:04;;;;;;;2.30;1.65;;;;;;;;;;6268600;28;20053;-68
2022/11/22 09:09:06;;;;;;;4.43;1.90;;;;;;;;;;6271206;28;20056;-69
2022/11/22 09:12:08;;;;;;;3.78;2.08;;;;;;;;;;6267037;28;20088;-69
2022/11/22 09:15:10;;;;;;;2.63;1.92;;;;;;;;;;6266485;28;20055;-68
2022/11/22 09:18:13;;;;;;;2.25;1.80;;;;;;;;;;6267062;28;20049;-69
2022/11/22 09:21:16;;;;;;;4.80;2.10;;;;;;;;;;6268659;28;20053;-68
2022/11/22 09:24:18;;;;;;;4.68;1.80;;;;;;;;;;6265448;28;20053;-68
2022/11/22 09:27:20;;;;;;;3.13;2.00;;;;;;;;;;6268135;28;20207;-68
2022/11/22 09:30:21;;;;;;;3.53;2.13;;;;;;;;;;6270026;28;20130;-68
2022/11/22 09:33:25;;;;;;;3.47;2.03;;;;;;;;;;6267661;28;20060;-69
2022/11/22 09:36:26;;;;;;;4.82;2.20;;;;;;;;;;6267377;28;20108;-68
2022/11/22 09:39:28;;;;;;;3.13;1.70;;;;;;;;;;6268032;28;20079;-68
2022/11/22 09:43:02;;;;;;;4.75;2.05;;;;;;;;;;6266718;28;20042;-67
2022/11/22 09:46:14;;;;;;;4.55;2.13;;;;;;;;;;6242815;28;20249;-68
2022/11/22 09:49:28;;;;;;;4.22;2.28;;;;;;;;;;6267819;28;20115;-68
2022/11/22 09:52:33;;;;;;;3.65;1.90;;;;;;;;;;6268663;28;20053;-68
2022/11/22 09:55:38;;;;;;;5.97;2.40;;;;;;;;;;6267107;28;20053;-69
2022/11/22 09:58:43;;;;;;;2.65;1.95;;;;;;;;;;6267594;28;20333;-69
2022/11/22 10:01:48;;;;;;;2.50;2.20;;;;;;;;;;6265029;28;20118;-68
2022/11/22 10:04:54;;;;;;;4.63;2.47;;;;;;;;;;6266525;28;20386;-68
2022/11/22 10:08:00;;;;;;;5.07;2.83;;;;;;;;;;6264122;28;20240;-68
2022/11/22 10:11:04;;;;;;;3.60;2.30;;;;;;;;;;6270061;28;20045;-68
2022/11/22 10:14:14;;;;;;;4.82;2.10;;;;;;;;;;6265294;28;20057;-68
2022/11/22 10:17:24;;;;;;;3.72;2.75;;;;;;;;;;6265408;28;20049;-70
2022/11/22 10:20:28;;;;;;;5.97;2.72;;;;;;;;;;6266153;28;20206;-68
2022/11/22 10:23:31;;;;;;;5.18;2.70;;;;;;;;;;6267169;28;20161;-68
2022/11/22 10:26:34;;;;;;;4.30;2.58;;;;;;;;;;6264723;28;20055;-68
2022/11/22 10:29:41;;;;;;;6.45;3.05;;;;;;;;;;6267038;28;20071;-68
2022/11/22 10:32:57;;;;;;;4.20;2.70;;;;;;;;;;6265621;28;20857;-68
2022/11/22 10:36:11;;;;;;;3.88;2.58;;;;;;;;;;6263974;28;20064;-68
2022/11/22 10:39:21;;;;;;;4.20;2.47;;;;;;;;;;6263961;28;20095;-68
2022/11/22 10:42:33;;;;;;;3.72;2.47;;;;;;;;;;6265672;28;20064;-69
2022/11/22 10:45:37;;;;;;;3.05;2.35;;;;;;;;;;6267671;28;20052;-68
2022/11/22 10:48:43;;;;;;;4.43;2.67;;;;;;;;;;6265921;28;20154;-67
2022/11/22 10:51:52;;;;;;;5.25;2.65;;;;;;;;;;6264608;28;20060;-67
2022/11/22 10:54:59;;;;;;;3.38;2.30;;;;;;;;;;6266408;28;20044;-67
2022/11/22 10:58:05;;;;;;;4.20;2.53;;;;;;;;;;6266606;28;20071;-67
2022/11/22 11:01:14;;;;;;;7.60;2.30;;;;;;;;;;6264544;28;20053;-67
2022/11/22 11:04:16;;;;;;;4.70;2.60;;;;;;;;;;6263283;28;20332;-68
2022/11/22 11:07:22;;;;;;;3.90;2.25;;;;;;;;;;6264581;28;20296;-67
2022/11/22 11:10:30;;;;;;;2.70;1.92;;;;;;;;;;6261893;28;20060;-66
2022/11/22 11:13:34;;;;;;;3.92;1.90;;;;;;;;;;6264172;28;20348;-68
2022/11/22 11:16:37;;;;;;;2.97;1.52;;;;;;;;;;6268850;28;20248;-68
2022/11/22 11:19:41;;;;;;;1.92;1.50;;;;;;;;;;6264796;28;20069;-68
2022/11/22 11:22:44;;;;;;;2.10;1.55;;;;;;;;;;6264218;28;20049;-68
2022/11/22 11:25:47;;;;;;;2.63;1.88;;;;;;;;;;6265446;28;20045;-66
2022/11/22 11:28:49;;;;;;;3.50;1.58;;;;;;;;;;6263337;28;20175;-67
2022/11/22 11:32:04;;;;;;;2.33;1.60;;;;;;;;;;6263483;28;20049;-66
2022/11/22 11:35:06;;;;;;;2.10;1.35;;;;;;;;;;6267006;28;20088;-69
2022/11/22 11:38:28;;;;;;;2.78;1.48;;;;;;;;;;6262649;28;20333;-67
2022/11/22 11:41:32;;;;;;;2.80;1.38;;;;;;;;;;6264545;28;20060;-68
2022/11/22 11:44:36;;;;;;;2.55;1.55;;;;;;;;;;6262521;28;20045;-68
2022/11/22 11:47:38;;;;;;;;;;;;;;;;;;6263955;28;20060;-67
2022/11/22 11:50:39;;;;;;;3.20;1.30;;;;;;;;;;6262192;28;19971;-67
2022/11/22 11:53:50;;;;;;;1.35;1.05;;;;;;;;;;6267630;28;20080;-65
2022/11/22 11:56:53;;;;;;;2.40;1.17;;;;;;;;;;6262679;28;20080;-68
2022/11/22 11:59:56;;;;;;;3.40;2.25;;;;;;;;;;6267230;28;20053;-68
2022/11/22 12:03:00;;;;;;;3.43;2.40;;;;;;;;;;6262891;28;20177;-68
2022/11/22 12:06:11;;;;;;;4.95;2.58;;;;;;;;;;6268946;28;20308;-68
2022/11/22 12:09:28;;;;;;;3.38;2.60;;;;;;;;;;6268896;28;20061;-68
2022/11/22 12:12:36;;;;;;;4.32;2.80;;;;;;;;;;6267826;28;20317;-68
2022/11/22 12:15:47;;;;;;;4.38;2.92;;;;;;;;;;6270088;28;20053;-68
2022/11/22 12:18:52;;;;;;;4.72;3.05;;;;;;;;;;6268422;28;20379;-68
2022/11/22 12:21:57;;;;;;;4.90;2.83;;;;;;;;;;6269580;28;20075;-68
2022/11/22 12:25:05;;;;;;;6.10;4.20;;;;;;;;;;6266927;28;20049;-68
2022/11/22 12:28:18;;;;;;;5.15;3.72;;;;;;;;;;6268876;28;20053;-68
2022/11/22 12:31:27;;;;;;;5.25;3.53;;;;;;;;;;6268647;28;20057;-66
2022/11/22 12:34:32;;;;;;;4.82;3.10;;;;;;;;;;6269515;28;20328;-69
2022/11/22 12:37:38;;;;;;;4.65;2.80;;;;;;;;;;6270626;28;20116;-68
2022/11/22 12:40:42;;;;;;;3.38;2.50;;;;;;;;;;6267818;28;20080;-68
2022/11/22 12:43:46;;;;;;;4.75;2.80;;;;;;;;;;6267184;28;20053;-67
2022/11/22 12:46:50;;;;;;;4.22;2.78;;;;;;;;;;6266384;28;20107;-68
2022/11/22 12:49:55;;;;;;;5.00;2.95;;;;;;;;;;6268374;28;20305;-68
2022/11/22 12:53:00;;;;;;;4.13;2.63;;;;;;;;;;6268374;28;20074;-68
2022/11/22 12:56:09;;;;;;;3.30;2.55;;;;;;;;;;6268840;28;20240;-69
2022/11/22 12:59:19;;;;;;;4.88;3.05;;;;;;;;;;6266252;28;20750;-68
2022/11/22 13:02:29;;;;;;;4.95;4.03;;;;;;;;;;6272939;28;20380;-68
2022/11/22 13:05:34;;;;;;;7.97;3.80;;;;;;;;;;6273166;28;20049;-69
2022/11/22 13:08:40;;;;;;;6.30;3.90;;;;;;;;;;6270844;28;20057;-67
2022/11/22 13:11:48;;;;;;;5.53;4.38;;;;;;;;;;6272985;28;20051;-68
2022/11/22 13:14:53;;;;;;;6.72;4.47;;;;;;;;;;6270767;28;20117;-67
2022/11/22 13:17:56;;;;;;;6.07;4.45;;;;;;;;;;6269300;28;20329;-71
2022/11/22 13:21:05;;;;;;;6.22;4.53;;;;;;;;;;6275402;28;20395;-73
2022/11/22 13:24:20;;;;;;;7.35;4.90;;;;;;;;;;6269463;28;20397;-68
2022/11/22 13:27:27;;;;;;;7.72;5.60;;;;;;;;;;6271388;28;20257;-71
2022/11/22 13:30:30;;;;;;;7.25;5.10;;;;;;;;;;6267528;28;20044;-70
2022/11/22 13:33:33;;;;;;;7.60;5.77;;;;;;;;;;6264694;28;20048;-69
2022/11/22 13:36:40;;;;;;;8.80;5.97;;;;;;;;;;6243154;28;20289;-69
2022/11/22 13:39:44;;;;;;;8.13;6.07;;;;;;;;;;6264049;28;20041;-71
2022/11/22 13:42:47;;;;;;;8.35;6.38;;;;;;;;;;6266742;28;20041;-71
2022/11/22 13:45:50;;;;;;;9.38;6.57;;;;;;;;;;6268943;28;20305;-72
2022/11/22 13:49:14;;;;;;;7.47;5.53;;;;;;;;;;6265162;28;20155;-73
2022/11/22 13:52:34;;;;;;;9.85;7.10;;;;;;;;;;6266311;28;20050;-73
2022/11/22 13:55:36;;;;;;;10.13;6.70;;;;;;;;;;6266779;28;20070;-73
2022/11/22 13:58:53;;;;;;;8.50;6.25;;;;;;;;;;6264540;28;20061;-74
2022/11/22 14:02:01;;;;;;;10.60;6.38;;;;;;;;;;6266745;28;20049;-74
2022/11/22 14:05:03;;;;;;;8.50;6.28;;;;;;;;;;6265416;28;20285;-71
2022/11/22 14:08:06;;;;;;;9.68;6.90;;;;;;;;;;6272034;28;20053;-71
2022/11/22 14:11:29;;;;;;;8.35;5.70;;;;;;;;;;6270627;28;20057;-70
2022/11/22 14:14:37;;;;;;;9.18;7.05;;;;;;;;;;6269627;28;20059;-72
2022/11/22 14:17:47;;;;;;;9.38;6.38;;;;;;;;;;6268450;28;20061;-71
2022/11/22 14:20:59;;;;;;;9.38;6.72;;;;;;;;;;6268413;28;20180;-72
2022/11/22 14:24:06;;;;;;;9.07;6.35;;;;;;;;;;6269428;28;20053;-70
2022/11/22 14:27:16;;;;;;;7.78;6.30;;;;;;;;;;6266790;28;20057;-71
2022/11/22 14:30:20;;;;;;;7.88;6.10;;;;;;;;;;6268989;28;20167;-70
2022/11/22 14:33:22;;;;;;;;;;;;;;;;;;6270361;28;20057;-72
2022/11/22 14:36:24;;;;;;;14.60;9.43;;;;;;;;;;6266025;28;19963;-66
2022/11/22 14:40:10;;;;;;;24.92;14.75;;;;;;;;;;6254001;28;20119;-70
2022/11/22 14:43:29;;;;;;;11.10;7.80;;;;;;;;;;6266020;28;20049;-71
2022/11/22 14:46:40;;;;;;;10.32;6.93;;;;;;;;;;6264499;28;20051;-70
2022/11/22 14:49:44;;;;;;;10.20;7.35;;;;;;;;;;6266766;28;20322;-70
2022/11/22 14:52:46;;;;;;;9.00;6.72;;;;;;;;;;6263769;28;20049;-71
2022/11/22 14:55:48;;;;;;;10.85;7.72;;;;;;;;;;6267161;28;20099;-68
2022/11/22 14:58:57;;;;;;;13.02;8.48;;;;;;;;;;6263013;28;20053;-68
2022/11/22 15:02:15;;;;;;;9.15;7.53;;;;;;;;;;6267698;28;20052;-69
2022/11/22 15:05:19;;;;;;;10.75;7.93;;;;;;;;;;6265403;28;20360;-70
2022/11/22 15:08:25;;;;;;;11.40;8.50;;;;;;;;;;6265181;28;20320;-70
2022/11/22 15:11:50;;;;;;;10.27;8.10;;;;;;;;;;6267296;28;20072;-69
2022/11/22 15:15:26;;;;;;;11.48;8.55;;;;;;;;;;6265011;28;20095;-69
2022/11/22 15:18:34;;;;;;;10.68;7.93;;;;;;;;;;6269215;28;20171;-69
2022/11/22 15:21:37;;;;;;;12.38;8.60;;;;;;;;;;6266698;28;20080;-70
2022/11/22 15:24:41;;;;;;;11.13;8.27;;;;;;;;;;6263168;28;20383;-70
2022/11/22 15:27:45;;;;;;;12.93;8.35;;;;;;;;;;6266668;28;20118;-70
2022/11/22 15:30:48;;;;;;;9.88;7.82;;;;;;;;;;6266682;28;20055;-70
2022/11/22 15:33:52;;;;;;;10.57;8.45;;;;;;;;;;6263071;28;20057;-70
2022/11/22 15:37:02;;;;;;;9.15;6.90;;;;;;;;;;6262762;28;20679;-70
2022/11/22 15:40:08;;;;;;;11.68;8.05;;;;;;;;;;6262677;28;20135;-71
2022/11/22 15:43:12;;;;;;;9.25;6.95;;;;;;;;;;6273016;28;20061;-70
2022/11/22 15:46:14;;;;;;;11.38;7.80;;;;;;;;;;6266628;28;20061;-67
2022/11/22 15:49:18;;;;;;;8.63;6.68;;;;;;;;;;6269113;28;20072;-69
2022/11/22 15:52:23;;;;;;;10.07;6.68;;;;;;;;;;6269601;28;20054;-68
2022/11/22 15:55:25;;;;;;;10.25;7.25;;;;;;;;;;6268105;28;20060;-68
2022/11/22 15:58:29;;;;;;;11.50;6.90;;;;;;;;;;6270138;28;20292;-68
2022/11/22 16:01:31;;;;;;;9.23;6.32;;;;;;;;;;6272546;28;20136;-71
2022/11/22 16:04:36;;;;;;;9.13;5.88;;;;;;;;;;6272085;28;20189;-70
2022/11/22 16:07:41;;;;;;;7.28;5.90;;;;;;;;;;6267980;28;20045;-70
2022/11/22 16:10:44;;;;;;;8.52;6.00;;;;;;;;;;6274457;28;20068;-70
2022/11/22 16:13:46;;;;;;;7.00;5.78;;;;;;;;;;6269136;28;20057;-70
2022/11/22 16:16:47;;;;;;;7.88;5.80;;;;;;;;;;6271675;28;20103;-70
2022/11/22 16:19:51;;;;;;;8.27;5.05;;;;;;;;;;6271241;28;20206;-69
2022/11/22 16:23:13;;;;;;;8.32;5.60;;;;;;;;;;6268921;28;20225;-69
2022/11/22 16:26:20;;;;;;;8.55;5.88;;;;;;;;;;6266673;28;20061;-70
2022/11/22 16:29:30;;;;;;;8.27;6.13;;;;;;;;;;6272728;28;20300;-66
2022/11/22 16:32:32;;;;;;;8.40;6.10;;;;;;;;;;6266551;28;20419;-70
2022/11/22 16:35:35;;;;;;;7.55;6.10;;;;;;;;;;6272457;28;20053;-69
2022/11/22 16:38:37;;;;;;;10.53;6.57;;;;;;;;;;6268382;28;20387;-70
2022/11/22 16:41:38;;;;;;;9.65;6.93;;;;;;;;;;6269906;28;20052;-69
2022/11/22 16:44:40;;;;;;;10.60;7.07;;;;;;;;;;6269951;28;20067;-69
2022/11/22 16:47:42;;;;;;;10.35;7.85;;;;;;;;;;6271050;28;20060;-70
2022/11/22 16:50:46;;;;;;;10.13;7.50;;;;;;;;;;6266205;28;20065;-69
2022/11/22 16:53:49;;;;;;;11.90;7.82;;;;;;;;;;6265670;28;20049;-73
2022/11/22 16:56:50;;;;;;;11.65;8.43;;;;;;;;;;6268256;28;20076;-71
2022/11/22 16:59:53;;;;;;;12.27;9.30;;;;;;;;;;6269261;28;20060;-70
2022/11/22 17:02:54;;;;;;;13.15;10.18;;;;;;;;;;6271351;28;20575;-71
2022/11/22 17:05:57;;;;;;;12.95;9.27;;;;;;;;;;6268000;28;20057;-71
2022/11/22 17:09:00;;;;;;;15.32;10.27;;;;;;;;;;6266555;28;20047;-73
2022/11/22 17:12:02;;;;;;;14.40;10.57;;;;;;;;;;6265929;28;20049;-71
2022/11/22 17:15:05;;;;;;;14.20;10.95;;;;;;;;;;6265676;28;20048;-69
2022/11/22 17:18:06;;;;;;;15.00;10.63;;;;;;;;;;6268016;28;20061;-71
2022/11/22 17:21:16;;;;;;;17.02;11.60;;;;;;;;;;6270116;28;20206;-70
2022/11/22 17:24:20;;;;;;;22.13;12.27;;;;;;;;;;6268315;28;20364;-71
2022/11/22 17:27:21;;;;;;;15.23;11.15;;;;;;;;;;6267665;28;20244;-70
2022/11/22 17:30:23;;;;;;;15.90;11.25;;;;;;;;;;6268656;28;20133;-70
2022/11/22 17:33:25;;;;;;;16.52;12.18;;;;;;;;;;6267603;28;20102;-71
2022/11/22 17:36:29;;;;;;;16.08;11.70;;;;;;;;;;6267920;28;20248;-70
2022/11/22 17:39:31;;;;;;;15.63;11.27;;;;;;;;;;6268749;28;20095;-71
2022/11/22 17:42:34;;;;;;;15.13;12.13;;;;;;;;;;6266302;28;20045;-70
2022/11/22 17:45:42;;;;;;;18.50;12.57;;;;;;;;;;6265950;28;20257;-70
2022/11/22 17:48:44;;;;;;;19.58;12.30;;;;;;;;;;6267699;28;20059;-70
2022/11/22 17:51:47;;;;;;;18.15;12.93;;;;;;;;;;6266436;28;20359;-67
2022/11/22 17:54:49;;;;;;;17.98;12.43;;;;;;;;;;6267106;28;20061;-70
2022/11/22 17:57:51;;;;;;;16.20;11.95;;;;;;;;;;6270106;28;20053;-70
2022/11/22 18:00:52;;;;;;;17.90;12.55;;;;;;;;;;6268181;28;20333;-68
2022/11/22 18:03:54;;;;;;;17.67;12.40;;;;;;;;;;6265841;28;20087;-71
2022/11/22 18:06:57;;;;;;;17.33;11.93;;;;;;;;;;6266238;28;20053;-70
2022/11/22 18:09:59;;;;;;;16.70;12.50;;;;;;;;;;6268546;28;20057;-71
2022/11/22 18:13:00;;;;;;;17.67;13.02;;;;;;;;;;6264285;28;20260;-70
2022/11/22 18:16:05;;;;;;;17.50;12.30;;;;;;;;;;6264752;28;20276;-72
2022/11/22 18:19:06;;;;;;;;;;;;;;;;;;6267037;28;20063;-70
2022/11/22 18:22:09;;;;;;;15.95;10.85;;;;;;;;;;6262808;28;19928;-69
2022/11/22 18:25:11;;;;;;;17.23;11.80;;;;;;;;;;6263853;28;20052;-70